createdAt,value
2023-05-04T00:10:34.294Z,0.00
2023-05-04T00:21:36.070Z,0.00
2023-05-04T00:32:37.810Z,0.00
2023-05-04T00:43:39.576Z,0.00
2023-05-04T00:54:41.301Z,0.00
2023-05-04T01:05:43.087Z,0.00
2023-05-04T01:16:44.837Z,0.00
2023-05-04T01:27:46.558Z,0.00
2023-05-04T01:38:48.256Z,0.00
2023-05-04T01:49:50.005Z,0.00
2023-05-04T02:00:51.731Z,0.00
2023-05-04T02:11:53.491Z,0.00
2023-05-04T02:22:55.204Z,0.00
2023-05-04T02:33:56.981Z,0.00
2023-05-04T02:44:58.689Z,0.00
2023-05-04T02:56:00.480Z,0.00
2023-05-04T03:07:02.175Z,0.00
2023-05-04T03:18:03.966Z,0.00
2023-05-04T03:29:05.628Z,0.00
2023-05-04T03:40:07.568Z,0.00
2023-05-04T03:51:09.119Z,0.00
2023-05-04T04:02:10.993Z,0.00
2023-05-04T04:13:12.660Z,0.00
2023-05-04T04:24:14.395Z,0.00
2023-05-04T04:35:16.119Z,0.00
2023-05-04T04:46:17.911Z,0.00
2023-05-04T04:57:19.628Z,0.00
2023-05-04T05:08:21.429Z,0.00
2023-05-04T05:12:02.966Z,2.38
2023-05-04T05:23:04.686Z,0.00
2023-05-04T05:34:06.467Z,0.00
2023-05-04T05:45:08.181Z,0.00
2023-05-04T05:56:09.986Z,0.00
2023-05-04T06:07:11.802Z,0.00
2023-05-04T06:18:13.560Z,0.00
2023-05-04T06:29:15.277Z,0.00
2023-05-04T06:40:17.083Z,0.00
2023-05-04T06:51:18.735Z,0.00
2023-05-04T07:02:20.493Z,0.00
2023-05-04T07:13:22.311Z,4.41
2023-05-04T07:17:04.014Z,4.53
2023-05-04T07:20:45.701Z,3.20
2023-05-04T07:24:27.480Z,3.80
2023-05-04T07:28:09.129Z,2.67
2023-05-04T07:31:50.836Z,2.46
2023-05-04T07:35:32.496Z,4.92
2023-05-04T07:39:14.389Z,4.32
2023-05-04T07:42:56.038Z,2.89
2023-05-04T07:46:37.860Z,4.35
2023-05-04T07:50:19.565Z,4.45
2023-05-04T07:54:01.385Z,4.68
2023-05-04T07:57:43.069Z,4.51
2023-05-04T08:01:24.826Z,5.06
2023-05-04T08:05:06.758Z,4.34
2023-05-04T08:08:49.219Z,3.91
2023-05-04T08:12:30.263Z,3.30
2023-05-04T08:16:11.980Z,2.92
2023-05-04T08:19:53.588Z,6.69
2023-05-04T08:23:35.341Z,3.50
2023-05-04T08:27:17.077Z,4.92
2023-05-04T08:30:58.839Z,4.06
2023-05-04T08:34:40.854Z,3.82
2023-05-04T08:38:22.307Z,3.40
2023-05-04T08:42:04.066Z,4.77
2023-05-04T08:45:45.747Z,2.36
2023-05-04T08:49:27.381Z,3.60
2023-05-04T08:53:09.094Z,3.71
2023-05-04T08:56:50.864Z,3.77
2023-05-04T09:00:32.738Z,5.48
2023-05-04T09:04:14.337Z,3.78
2023-05-04T09:07:56.027Z,4.15
2023-05-04T09:11:37.749Z,3.61
2023-05-04T09:15:19.508Z,3.30
2023-05-04T09:19:01.195Z,3.97
2023-05-04T09:22:42.872Z,7.13
2023-05-04T09:26:24.672Z,4.38
2023-05-04T09:30:06.577Z,3.25
2023-05-04T09:33:48.270Z,5.08
2023-05-04T09:37:30.038Z,4.05
2023-05-04T09:41:11.761Z,3.91
2023-05-04T09:44:53.372Z,3.16
2023-05-04T09:48:35.057Z,3.09
2023-05-04T09:52:16.870Z,5.00
2023-05-04T09:56:00.032Z,5.19
2023-05-04T09:59:40.254Z,3.72
2023-05-04T10:03:21.908Z,2.33
2023-05-04T10:07:03.673Z,4.50
2023-05-04T10:10:45.336Z,4.82
2023-05-04T10:14:27.166Z,4.02
2023-05-04T10:18:09.001Z,4.32
2023-05-04T10:21:50.855Z,5.75
2023-05-04T10:25:32.767Z,4.50
2023-05-04T10:29:14.467Z,4.72
2023-05-04T10:32:56.329Z,4.85
2023-05-04T10:36:38.178Z,5.09
2023-05-04T10:40:20.042Z,4.51
2023-05-04T10:44:01.861Z,3.47
2023-05-04T10:47:43.712Z,4.59
2023-05-04T10:51:32.606Z,4.54
2023-05-04T10:55:07.481Z,5.23
2023-05-04T10:58:49.057Z,3.74
2023-05-04T11:02:33.209Z,5.60
2023-05-04T11:06:12.705Z,4.39
2023-05-04T11:09:54.566Z,7.81
2023-05-04T11:13:36.334Z,4.90
2023-05-04T11:21:00.056Z,5.84
2023-05-04T11:24:41.916Z,4.60
2023-05-04T11:28:23.757Z,6.51
2023-05-04T11:32:05.664Z,5.06
2023-05-04T11:35:47.530Z,4.76
2023-05-04T11:39:29.418Z,5.58
2023-05-04T11:43:11.201Z,5.04
2023-05-04T11:46:53.119Z,4.72
2023-05-04T11:50:34.856Z,4.12
2023-05-04T11:54:16.661Z,5.30
2023-05-04T11:57:58.484Z,4.67
2023-05-04T12:01:40.268Z,5.16
2023-05-04T12:05:22.058Z,5.43
2023-05-04T12:09:03.864Z,5.66
2023-05-04T12:12:45.618Z,4.17
2023-05-04T12:16:27.508Z,5.82
2023-05-04T12:20:09.119Z,5.19
2023-05-04T12:23:50.852Z,4.69
2023-05-04T12:27:32.761Z,7.41
2023-05-04T12:31:14.677Z,5.36
2023-05-04T12:34:56.502Z,4.77
2023-05-04T12:38:38.230Z,5.29
2023-05-04T12:42:20.061Z,5.00
2023-05-04T12:46:02.051Z,7.30
2023-05-04T12:49:43.765Z,4.83
2023-05-04T12:53:25.609Z,5.04
2023-05-04T12:57:07.302Z,5.00
2023-05-04T13:00:49.216Z,6.61
2023-05-04T13:04:31.149Z,5.26
2023-05-04T13:08:13.013Z,5.86
2023-05-04T13:11:54.998Z,5.68
2023-05-04T13:15:36.717Z,4.84
2023-05-04T13:19:18.485Z,5.69
2023-05-04T13:23:00.313Z,4.81
2023-05-04T13:26:42.203Z,4.35
2023-05-04T13:30:24.115Z,6.52
2023-05-04T13:34:05.905Z,6.70
2023-05-04T13:37:47.789Z,5.96
2023-05-04T13:41:29.605Z,7.36
2023-05-04T13:45:11.439Z,4.73
2023-05-04T13:48:55.122Z,4.67
2023-05-04T13:52:34.932Z,4.06
2023-05-04T13:56:16.821Z,5.16
2023-05-04T14:00:06.316Z,4.91
2023-05-04T14:03:40.465Z,4.70
2023-05-04T14:07:22.332Z,5.30
2023-05-04T14:11:04.177Z,6.38
2023-05-04T14:14:46.095Z,4.87
2023-05-04T14:18:27.963Z,5.59
2023-05-04T14:22:09.816Z,5.26
2023-05-04T14:25:51.807Z,5.10
2023-05-04T14:29:33.583Z,3.16
2023-05-04T14:33:15.216Z,2.29
2023-05-04T14:36:56.833Z,4.65
2023-05-04T14:40:38.593Z,4.39
2023-05-04T14:44:20.304Z,2.94
2023-05-04T14:48:02.137Z,4.81
2023-05-04T14:51:43.757Z,3.15
2023-05-04T14:55:25.561Z,3.84
2023-05-04T14:59:07.300Z,4.14
2023-05-04T15:02:49.204Z,3.84
2023-05-04T15:06:30.753Z,5.41
2023-05-04T15:10:13.559Z,4.91
2023-05-04T15:13:55.329Z,4.29
2023-05-04T15:17:37.115Z,5.21
2023-05-04T15:21:18.848Z,3.63
2023-05-04T15:25:00.592Z,4.85
2023-05-04T15:28:42.216Z,4.01
2023-05-04T15:32:24.063Z,5.10
2023-05-04T15:36:05.756Z,3.97
2023-05-04T15:39:47.532Z,4.06
2023-05-04T15:43:29.205Z,2.63
2023-05-04T15:47:10.903Z,3.30
2023-05-04T15:50:52.673Z,3.95
2023-05-04T15:54:34.452Z,3.44
2023-05-04T15:58:16.210Z,2.87
2023-05-04T16:01:57.841Z,4.20
2023-05-04T16:05:39.471Z,2.93
2023-05-04T16:09:21.167Z,2.62
2023-05-04T16:13:02.803Z,3.51
2023-05-04T16:16:44.504Z,3.82
2023-05-04T16:20:27.083Z,2.40
2023-05-04T16:31:29.079Z,2.24
2023-05-04T16:35:10.620Z,4.06
2023-05-04T16:42:32.271Z,2.78
2023-05-04T16:46:13.973Z,2.82
2023-05-04T16:49:55.588Z,4.32
2023-05-04T16:53:37.264Z,4.18
2023-05-04T16:57:18.835Z,2.09
2023-05-04T17:08:20.567Z,0.00
2023-05-04T17:19:22.340Z,0.00
2023-05-04T17:30:24.052Z,0.00
2023-05-04T17:41:25.917Z,0.00
2023-05-04T17:52:27.563Z,0.00
2023-05-04T18:03:29.426Z,0.00
2023-05-04T18:14:31.044Z,0.00
2023-05-04T18:25:32.824Z,0.00
2023-05-04T18:36:34.639Z,0.00
2023-05-04T18:47:37.292Z,0.00
2023-05-04T18:58:39.068Z,0.00
2023-05-04T19:09:40.942Z,0.00
2023-05-04T19:20:42.642Z,0.00
2023-05-04T19:31:44.488Z,0.00
2023-05-04T19:42:46.320Z,0.00
2023-05-04T19:46:27.827Z,2.44
2023-05-04T19:57:29.547Z,0.00
2023-05-04T20:08:31.287Z,0.00
2023-05-04T20:12:12.961Z,2.68
2023-05-04T20:19:34.662Z,2.48
2023-05-04T20:23:16.274Z,3.51
2023-05-04T20:26:57.917Z,3.15
2023-05-04T20:37:59.697Z,0.00
2023-05-04T20:49:01.413Z,0.00
2023-05-04T21:00:03.214Z,0.00
2023-05-04T21:03:44.874Z,2.40
2023-05-04T21:14:46.536Z,0.00
2023-05-04T21:22:08.695Z,2.09
2023-05-04T21:29:29.957Z,4.17
2023-05-04T21:36:51.739Z,2.09
2023-05-04T21:40:33.334Z,2.22
2023-05-04T21:44:14.939Z,3.34
2023-05-04T21:55:16.659Z,0.00
2023-05-04T22:06:18.421Z,0.00
2023-05-04T22:10:00.046Z,2.79
2023-05-04T22:13:41.662Z,6.15
2023-05-04T22:17:23.224Z,2.48
2023-05-04T22:21:04.828Z,4.10
2023-05-04T22:24:46.499Z,7.35
2023-05-04T22:35:48.237Z,0.00
2023-05-04T22:43:09.898Z,4.43
2023-05-04T22:46:51.542Z,4.76
2023-05-04T22:50:33.242Z,3.16
2023-05-04T22:54:14.880Z,4.06
2023-05-04T22:57:56.621Z,4.68
2023-05-04T23:01:38.427Z,5.89
2023-05-04T23:05:20.080Z,3.58
2023-05-04T23:09:01.718Z,4.06
2023-05-04T23:16:23.526Z,4.03
2023-05-04T23:20:05.147Z,2.53
2023-05-04T23:31:06.838Z,2.09
2023-05-04T23:38:28.580Z,3.30
2023-05-04T23:42:10.155Z,2.48
2023-05-04T23:45:51.845Z,2.67
2023-05-04T23:49:33.371Z,3.68
2023-05-04T23:53:14.955Z,2.87
2023-05-04T23:56:56.813Z,4.99
